Monatstabelle

Bitte in den Auwahlmenüs den gewünschte Zeiraum wählen und die Schaltfläche "Anfrage absenden" betätigen. Beginn der Aufzeichnung ist 2007 - Dezember. Vor diesem Zeitraum sind keine Daten verfügbar.

2020 - Juni

 

Datum Temperatur (°C) Luftdruck (hPa) Luftfeuchte (%) Regen
(l/m²)
Wind (km/h)
avg: min: max: avg: min: max: avg: min: max: avg: max:
01.06.2020 16,9 9,5 21,9 1014,7 1013,7 1016,2 68 50 91 0,0 0,0 0,0
02.06.2020 14,8 7,3 20,9 1010,5 1008,1 1014,6 68 47 88 0,1 0,0 0,0
03.06.2020 14,2 10,3 23,5 1003,0 1001,2 1009,2 81 49 91 9,2 0,0 0,0
04.06.2020 18,6 10,1 25,5 994,4 993,1 1000,9 66 45 90 0,0 0,0 0,0
05.06.2020 15,5 11,3 19,1 998,8 993,7 1002,6 79 62 86 10,7 0,0 0,0
06.06.2020 19,5 9,5 25,5 1003,7 1002,2 1005,2 69 48 92 0,0 0,0 0,0
07.06.2020 20,2 14,2 28,3 1004,1 1001,5 1006,9 64 38 84 0,0 0,0 17,7
08.06.2020 15,0 12,5 18,3 1010,0 1006,9 1010,5 70 61 76 0,0 0,0 0,0
09.06.2020 16,6 13,3 20,7 1008,9 1007,7 1010,2 79 65 87 19,4 0,0 0,0
10.06.2020 14,9 12,9 19,5 1006,7 1006,0 1008,8 88 74 90 15,0 0,0 0,0
11.06.2020 17,7 11,6 24,6 1006,6 1005,5 1007,4 70 42 94 0,1 0,0 0,0
12.06.2020 20,6 10,1 27,3 1006,8 1006,1 1008,0 70 45 93 0,0 0,0 0,0
13.06.2020 22,3 13,6 29,7 1007,1 1005,9 1008,3 67 44 91 0,0 0,0 0,0
14.06.2020 19,0 15,1 25,3 1007,8 1005,3 1009,4 77 60 92 1,1 0,0 0,0
15.06.2020 17,8 15,5 20,1 1010,6 1008,8 1011,6 72 67 79 0,0 0,0 0,0
16.06.2020 19,0 12,0 23,4 1010,0 1009,2 1011,8 71 58 88 0,0 0,0 0,0
17.06.2020 18,0 14,5 22,2 1007,2 1006,2 1009,6 77 68 86 1,6 0,0 0,0
18.06.2020 17,9 15,0 23,5 1008,8 1006,2 1010,4 68 51 84 7,7 0,0 0,0
19.06.2020 9,4 0,0 22,8 1011,6 1009,6 1013,6 31 0 67 0,1 0,0 0,0
20.06.2020 15,4 13,5 20,4 1013,3 1012,7 1013,8 75 59 82 28,4 0,0 0,0
21.06.2020 15,1 12,9 16,3 1013,3 1011,3 1014,5 85 78 92 31,3 0,0 0,0
22.06.2020 19,0 16,3 24,0 1015,9 1013,9 1017,1 65 52 78 0,0 0,0 0,0
23.06.2020 19,1 16,2 23,5 1018,8 1016,9 1019,9 61 46 75 0,0 0,0 0,0
24.06.2020 17,2 9,5 23,9 1019,2 1018,1 1019,9 66 47 84 0,0 0,0 0,0
25.06.2020 17,3 11,9 21,0 1018,1 1016,9 1019,7 72 62 84 0,7 0,0 0,0
26.06.2020 17,3 17,3 22,1 1012,4 1010,9 1017,1 69 69 73 0,0 0,0 0,0
27.06.2020 21,9 16,1 29,5 1012,4 1011,5 1014,1 73 50 85 0,0 0,0 0,0
28.06.2020 23,3 15,7 31,7 1012,6 1011,2 1014,9 70 44 86 0,3 0,0 0,0
29.06.2020 16,7 13,2 19,9 1011,4 1010,2 1013,0 86 75 89 30,9 0,0 0,0
30.06.2020 21,0 11,3 27,2 1011,2 1009,9 1013,3 68 46 92 0,1 0,0 0,0
avg. 17,7 1009,7 71   ---
  Summe Regen: 156,8  
 
Min-Datum 19.06.2020 04.06.2020 19.06.2020 --- ---
Min-Zeit 01:21 21:38 01:21 --- ---
Minimum 0,0 993,1 0 --- ---
 

Max-Datum

28.06.2020 23.06.2020 11.06.2020 21.06.2020 07.06.2020
Max-Zeit 14:38 23:36 07:22 03:14 15:34
Maximum 31,7 1019,9 94 31,3 17,7
 

 

  Letztes Jahr
gleiches Monat
Eistage max < 0°C 0 0
Frosttage min < 0°C 0 0
Sommertage max >=25°C 9 26
Heiße Tage max >=30°C 1 11

 

<<< nach oben >>>